ETHN

Niederstetten Airport

Niederstetten, Germany
TAF ETHN 230652Z 2306/2315 14010KT 4000 -SG OVC003 BECMG 2308/2310 09006KT 7000 NSW OVC006
Issued Valid From Valid To
Jan-23 @ 06:52 UTC
(35 minutes ago)
Jan-23 @ 06:00 UTC
(an hour ago)
Jan-23 @ 15:00 UTC
(in 8 hours)
Jan-23 @ 06:00 to Jan-23 @ 08:00
TAF ETHN 230652Z 2306/2315 14010KT 4000 -SG OVC003
Wind Visibility Clouds Conditions
140° at 10 knots 4,007 meters
  • Overcast at 300' AGL
  • Light Snow grains
Becoming Jan-23 @ 08:00 to Jan-23 @ 15:00
BECMG 2308/2310 09006KT 7000 NSW OVC006
Wind Visibility Clouds Conditions
90° at 6 knots 7,001 meters
  • Overcast at 600' AGL
TAF ETHN 230652Z 2306/2315 14010KT 4000 -SG OVC003 BECMG 2308/2310 09006KT 7000 NSW OVC006
Issued Jan-23 @ 06:52 UTC
(35 minutes ago)
Valid From Jan-23 @ 06:00 UTC
(an hour ago)
Valid To Jan-23 @ 15:00 UTC
(in 8 hours)
Jan-23 @ 06:00 - Jan-23 @ 08:00
Wind Visibility
140° at 10 knots 4,007 meters
Clouds
  • Overcast at 300' AGL
Conditions
  • Light Snow grains
Becoming Jan-23 @ 08:00 - Jan-23 @ 15:00
Wind Visibility
90° at 6 knots 7,001 meters
Clouds
  • Overcast at 600' AGL
Conditions